Aérodrome :
LOGIN :

S'inscrire | Disclaimer

   EN    FR    IT 

 










Légende :    VFR   VFR Marginal   IFR   IFR Intensif   IFR Très Intensif
Visi : 
Plafond : 
>= 8 km
>= 3000ft
5 à 8 km
1000 à 3000 ft
1500m à 5 km
500 à 1000 ft
800 à 1500m
200 à 500 ft
< 800m
< 200 ft
Symboles :   Orages  Brouillard  Fortes neiges  Fortes précipitations  Vent > 20 kt
SIGMETs :   Divers  Orages  Givrage  Turbulence  Onde Orograph.  Cendres Volcan.






- Altitude de l'aérodrome : 3368 ft


LSGC - Les Eplatures

DERNIER METAR :
  • 221150Z AUTO 05006KT CAVOK 10/M05 Q1030

METARs EXPIRÉS :
  • 221120Z AUTO VRB03KT CAVOK 10/M05 Q1030
  • 221050Z AUTO 00000KT CAVOK 08/M02 Q1031
  • 221020Z AUTO VRB01KT CAVOK 06/M04 Q1031
  • 220950Z 00000KT CAVOK 04/M04 Q1031
  • 220920Z AUTO VRB01KT CAVOK 02/M04 Q1031

TAF TAF LSGC
Valide du 22 à 12h jusqu'au 22 à 21h UTC


221125Z 2212/2221 VRB03KT CAVOK



MET'MAP, la Météo Aéronautique d'un coup d'oeil ! - Copyright ORBIFLY Décembre 2007 - Disclaimer

ORBIFLY MET'MAP TEAM :

Programmation & Développement : Alexandra Zaïnal
Sur une idée originale de : Baudouin d'Aumeries
Assistance à la programmation : Marc-Olivier Méhu
Soutien technique & logistique : Manuel Goepfert

Contact : metmap@orbifly.com




SOURCES & CREDITS :

   NOAA